createdAt,value
2017-09-14T00:01:51.543Z,50.4
2017-09-14T00:06:56.936Z,50.3
2017-09-14T00:12:02.332Z,50.3
2017-09-14T00:17:07.724Z,50.3
2017-09-14T00:22:13.120Z,50.3
2017-09-14T00:27:18.175Z,50.3
2017-09-14T00:32:22.905Z,50.2
2017-09-14T00:37:27.630Z,50.2
2017-09-14T00:42:33.360Z,50.2
2017-09-14T00:47:38.420Z,50.2
2017-09-14T00:52:44.150Z,50.2
2017-09-14T00:57:49.549Z,50.2
2017-09-14T01:02:54.942Z,50.2
2017-09-14T01:08:00.001Z,50.2
2017-09-14T01:13:05.395Z,50.1
2017-09-14T01:18:10.456Z,50.1
2017-09-14T01:23:15.866Z,50.1
2017-09-14T01:28:20.910Z,50.1
2017-09-14T01:33:26.308Z,50.1
2017-09-14T01:38:31.703Z,50.1
2017-09-14T01:43:36.771Z,50.1
2017-09-14T01:48:41.825Z,50.1
2017-09-14T01:53:46.884Z,50
2017-09-14T01:58:51.942Z,50
2017-09-14T02:03:57.335Z,50
2017-09-14T02:09:03.083Z,50
2017-09-14T02:14:08.119Z,50
2017-09-14T02:19:13.517Z,50
2017-09-14T02:24:18.580Z,50
2017-09-14T02:29:22.973Z,50
2017-09-14T02:34:27.363Z,50
2017-09-14T02:39:32.421Z,49.9
2017-09-14T02:44:37.815Z,49.9
2017-09-14T02:49:43.884Z,49.9
2017-09-14T02:54:49.615Z,49.9
2017-09-14T02:59:54.674Z,49.8
2017-09-14T03:04:59.398Z,49.8
2017-09-14T03:10:04.124Z,49.8
2017-09-14T03:15:09.518Z,49.8
2017-09-14T03:20:15.247Z,49.8
2017-09-14T03:25:20.643Z,49.8
2017-09-14T03:30:25.706Z,49.8
2017-09-14T03:35:30.428Z,49.8
2017-09-14T03:40:35.155Z,49.8
2017-09-14T03:45:40.215Z,49.8
2017-09-14T03:50:45.610Z,49.8
2017-09-14T03:55:51.003Z,49.8
2017-09-14T04:00:56.394Z,49.8
2017-09-14T04:06:01.118Z,49.8
2017-09-14T04:11:07.177Z,49.7
2017-09-14T04:16:12.901Z,49.7
2017-09-14T04:21:18.964Z,49.7
2017-09-14T04:26:24.357Z,49.7
2017-09-14T04:31:29.081Z,49.7
2017-09-14T04:36:34.140Z,49.7
2017-09-14T04:41:39.917Z,49.7
2017-09-14T04:46:45.647Z,49.7
2017-09-14T04:51:51.044Z,49.7
2017-09-14T04:56:56.797Z,49.8
2017-09-14T05:02:02.206Z,49.9
2017-09-14T05:07:08.148Z,50.1
2017-09-14T05:12:13.556Z,50.6
2017-09-14T05:17:19.301Z,50.7
2017-09-14T05:22:24.703Z,50.8
2017-09-14T05:27:30.428Z,50.7
2017-09-14T05:32:35.825Z,52.3
2017-09-14T05:37:40.561Z,51.5
2017-09-14T05:42:46.295Z,50.8
2017-09-14T05:47:51.694Z,50.5
2017-09-14T05:52:57.087Z,50.3
2017-09-14T05:58:01.816Z,50.1
2017-09-14T06:03:06.881Z,49.9
2017-09-14T06:08:12.613Z,49.8
2017-09-14T06:13:18.678Z,49.7
2017-09-14T06:18:24.075Z,49.6
2017-09-14T06:23:29.471Z,49.6
2017-09-14T06:28:34.202Z,49.5
2017-09-14T06:33:39.277Z,49.4
2017-09-14T06:38:44.676Z,49.3
2017-09-14T06:43:50.104Z,49.1
2017-09-14T06:48:54.812Z,49
2017-09-14T06:53:59.883Z,48.9
2017-09-14T06:59:04.615Z,48.7
2017-09-14T07:04:10.353Z,48.6
2017-09-14T07:09:15.759Z,48.4
2017-09-14T07:14:21.159Z,48.2
2017-09-14T07:19:25.893Z,47.9
2017-09-14T07:24:30.961Z,47.6
2017-09-14T07:29:37.032Z,47.4
2017-09-14T07:34:42.100Z,47
2017-09-14T07:39:46.166Z,46.7
2017-09-14T07:44:51.236Z,46.4
2017-09-14T07:49:56.970Z,46.4
2017-09-14T07:55:02.371Z,46.4
2017-09-14T08:00:08.111Z,46.3
2017-09-14T08:05:13.184Z,46.2
2017-09-14T08:10:18.584Z,45.8
2017-09-14T08:15:23.997Z,45.6
2017-09-14T08:20:28.738Z,45
2017-09-14T08:25:34.153Z,44.6
2017-09-14T08:30:38.898Z,44.5
2017-09-14T08:35:44.308Z,44.5
2017-09-14T08:40:49.717Z,44.9
2017-09-14T08:45:55.128Z,45.1
2017-09-14T08:51:00.197Z,45.4
2017-09-14T08:56:05.940Z,45.8
2017-09-14T09:01:11.017Z,46
2017-09-14T09:06:15.759Z,46
2017-09-14T09:11:20.498Z,46.1
2017-09-14T09:16:26.238Z,46.1
2017-09-14T09:21:31.310Z,45.8
2017-09-14T09:26:36.719Z,45.4
2017-09-14T09:31:42.129Z,44.7
2017-09-14T09:36:47.870Z,44.6
2017-09-14T09:41:53.285Z,44.7
2017-09-14T09:46:58.024Z,44.6
2017-09-14T09:52:03.095Z,44.5
2017-09-14T09:57:08.506Z,44.5
2017-09-14T10:02:13.245Z,44.2
2017-09-14T10:07:18.992Z,44
2017-09-14T10:12:24.067Z,44
2017-09-14T10:17:30.151Z,44.1
2017-09-14T10:22:35.227Z,44.6
2017-09-14T10:27:40.322Z,45.2
2017-09-14T10:32:45.395Z,45.7
2017-09-14T10:37:50.805Z,46
2017-09-14T10:42:55.208Z,46.4
2017-09-14T10:48:00.278Z,46.7
2017-09-14T10:53:05.348Z,47.1
2017-09-14T10:58:10.751Z,47.3
2017-09-14T11:03:15.821Z,47.5
2017-09-14T11:08:20.896Z,47.6
2017-09-14T11:13:26.298Z,47.8
2017-09-14T11:18:32.053Z,47.7
2017-09-14T11:23:37.465Z,47.7
2017-09-14T11:28:42.197Z,47.9
2017-09-14T11:33:47.603Z,47.9
2017-09-14T11:38:53.015Z,48
2017-09-14T11:43:57.751Z,47.8
2017-09-14T11:49:02.828Z,47.7
2017-09-14T11:54:07.898Z,47.4
2017-09-14T11:59:12.969Z,46.9
2017-09-14T12:04:18.041Z,46.5
2017-09-14T12:09:23.448Z,46.2
2017-09-14T12:14:27.859Z,46
2017-09-14T12:19:33.247Z,45.7
2017-09-14T12:24:38.995Z,45.4
2017-09-14T12:29:44.404Z,45.2
2017-09-14T12:34:49.160Z,45.4
2017-09-14T12:39:54.563Z,45.4
2017-09-14T12:44:58.964Z,45.3
2017-09-14T12:50:04.702Z,45.4
2017-09-14T12:55:09.434Z,45.5
2017-09-14T13:00:14.499Z,45.5
2017-09-14T13:05:19.906Z,45.6
2017-09-14T13:10:25.007Z,45.6
2017-09-14T13:15:30.411Z,46.1
2017-09-14T13:20:35.478Z,46.2
2017-09-14T13:25:40.880Z,46.2
2017-09-14T13:30:45.948Z,46.2
2017-09-14T13:35:52.019Z,46.2
2017-09-14T13:40:57.085Z,46.2
2017-09-14T13:46:02.816Z,46.2
2017-09-14T13:51:08.218Z,46.3
2017-09-14T13:56:13.618Z,46.2
2017-09-14T14:01:19.357Z,46.2
2017-09-14T14:06:24.091Z,46.2
2017-09-14T14:11:29.498Z,46
2017-09-14T14:16:35.233Z,46.1
2017-09-14T14:21:40.648Z,46.1
2017-09-14T14:26:46.049Z,46.2
2017-09-14T14:31:51.114Z,46.3
2017-09-14T14:36:56.525Z,46.5
2017-09-14T14:42:01.928Z,46.6
2017-09-14T14:47:06.997Z,46.8
2017-09-14T14:52:11.730Z,46.6
2017-09-14T14:57:17.464Z,46.9
2017-09-14T15:02:23.202Z,47
2017-09-14T15:07:28.604Z,47.1
2017-09-14T15:12:33.673Z,47.2
2017-09-14T15:17:39.412Z,47.3
2017-09-14T15:22:45.481Z,47.2
2017-09-14T15:27:50.878Z,47.2
2017-09-14T15:32:55.276Z,47.2
2017-09-14T15:38:01.018Z,47.2
2017-09-14T15:43:06.424Z,47.2
2017-09-14T15:48:12.161Z,47.2
2017-09-14T15:53:16.890Z,47.2
2017-09-14T15:58:21.622Z,47.2
2017-09-14T16:03:27.357Z,47.2
2017-09-14T16:08:33.125Z,47.2
2017-09-14T16:13:38.188Z,47.2
2017-09-14T16:18:43.590Z,47.1
2017-09-14T16:23:49.325Z,47.2
2017-09-14T16:28:54.417Z,47.1
2017-09-14T16:33:59.556Z,47
2017-09-14T16:39:04.753Z,46.8
2017-09-14T16:44:10.524Z,46
2017-09-14T16:49:16.084Z,45.1
2017-09-14T16:54:21.407Z,44.7
2017-09-14T16:59:26.467Z,44.4
2017-09-14T17:04:32.216Z,42.3
2017-09-14T17:09:37.626Z,43.8
2017-09-14T17:14:43.030Z,43.9
2017-09-14T17:19:48.095Z,44.1
2017-09-14T17:24:53.516Z,43.7
2017-09-14T17:29:58.245Z,43.9
2017-09-14T17:35:02.978Z,44.5
2017-09-14T17:40:08.092Z,44.8
2017-09-14T17:45:13.488Z,45.1
2017-09-14T17:50:18.552Z,45.3
2017-09-14T17:55:23.615Z,44.5
2017-09-14T18:00:28.346Z,44.6
2017-09-14T18:05:34.081Z,45.1
2017-09-14T18:10:39.148Z,45.5
2017-09-14T18:15:44.216Z,45.8
2017-09-14T18:20:49.613Z,46.1
2017-09-14T18:25:55.679Z,46.5
2017-09-14T18:31:01.076Z,47
2017-09-14T18:36:05.800Z,47.3
2017-09-14T18:41:10.868Z,47.1
2017-09-14T18:46:16.270Z,47
2017-09-14T18:51:21.344Z,47.1
2017-09-14T18:56:26.410Z,47.2
2017-09-14T19:01:32.479Z,47.4
2017-09-14T19:06:38.221Z,47.5
2017-09-14T19:11:42.280Z,47.7
2017-09-14T19:16:47.012Z,47.8
2017-09-14T19:21:52.413Z,48
2017-09-14T19:26:58.162Z,48.1
2017-09-14T19:32:03.244Z,48.2
2017-09-14T19:37:08.339Z,48.3
2017-09-14T19:42:13.416Z,48.4
2017-09-14T19:47:18.487Z,48.5
2017-09-14T19:52:22.888Z,48.6
2017-09-14T19:57:27.960Z,48.7
2017-09-14T20:02:34.047Z,48.8
2017-09-14T20:07:39.794Z,48.9
2017-09-14T20:12:44.531Z,49
2017-09-14T20:17:49.622Z,48.9
2017-09-14T20:22:55.034Z,48.9
2017-09-14T20:28:00.143Z,48.8
2017-09-14T20:33:05.568Z,48.7
2017-09-14T20:38:10.951Z,48.6
2017-09-14T20:43:16.024Z,48.5
2017-09-14T20:48:21.439Z,48.4
2017-09-14T20:53:26.505Z,48.3
2017-09-14T20:58:31.959Z,48.2
2017-09-14T21:03:37.023Z,48.2
2017-09-14T21:08:42.430Z,48.3
2017-09-14T21:13:48.171Z,48.3
2017-09-14T21:18:53.569Z,48.4
2017-09-14T21:23:58.964Z,48.4
2017-09-14T21:29:04.027Z,48.5
2017-09-14T21:34:09.086Z,48.5
2017-09-14T21:39:14.145Z,48.5
2017-09-14T21:44:18.876Z,48.6
2017-09-14T21:49:23.603Z,48.6
2017-09-14T21:54:29.336Z,48.6
2017-09-14T21:59:34.402Z,48.7
2017-09-14T22:04:39.457Z,48.7
2017-09-14T22:09:44.854Z,48.7
2017-09-14T22:14:50.580Z,48.7
2017-09-14T22:19:55.985Z,48.8
2017-09-14T22:25:00.705Z,48.8
2017-09-14T22:30:05.767Z,48.8
2017-09-14T22:35:10.155Z,48.8
2017-09-14T22:40:15.552Z,48.8
2017-09-14T22:45:21.290Z,48.8
2017-09-14T22:50:26.356Z,48.8
2017-09-14T22:55:31.753Z,48.8
2017-09-14T23:00:36.481Z,48.8
2017-09-14T23:05:42.216Z,48.9
2017-09-14T23:10:47.623Z,48.9
2017-09-14T23:15:53.014Z,48.9
2017-09-14T23:20:58.407Z,48.9
2017-09-14T23:26:03.466Z,48.9
2017-09-14T23:31:08.526Z,48.9
2017-09-14T23:36:13.925Z,48.9
2017-09-14T23:41:19.323Z,48.9
2017-09-14T23:46:24.050Z,48.9
2017-09-14T23:51:29.782Z,48.9
2017-09-14T23:56:34.845Z,48.9
